CYYZ/YYZ METAR and TAF weather

Enter ICAO airport designator
Station Type Date Time Source
CYYZ METAR 2017/07/25 14:00 UTC NOAA

CYYZ 251400Z 02008KT 15SM FEW025 BKN030 18/11 A3018 RMK CU2SC4 SLP223 DENSITY ALT 800FT


Station Type Date Time Source
CYYZ Decoded METAR 2017/07/25 14:00 UTC NOAA

Toronto Pearson Int'L. Ont., Canada (CYYZ) 43-40N 079-38W 173M
Jul 25, 2017 - 10:00 AM EDT / 2017.07.25 1400 UTC
Wind: from the NNE (020 degrees) at 9 MPH (8 KT):0
Visibility: 15 mile(s):0
Sky conditions: mostly cloudy
Temperature: 64 F (18 C)
Dew Point: 51 F (11 C)
Relative Humidity: 63%
Pressure (altimeter): 30.18 in. Hg (1022 hPa)
ob: CYYZ 251400Z 02008KT 15SM FEW025 BKN030 18/11 A3018 RMK CU2SC4 SLP223 DENSITY ALT 800FT
cycle: 14

Station Type Date Time Source
CYYZ TAF 2017/07/25 12:42 UTC NOAA

TAF CYYZ 251140Z 2512/2618 36008G18KT P6SM BKN030
TEMPO 2512/2516 BKN020
FM251800 04008KT P6SM BKN030
FM252100 16007KT P6SM SCT040
BECMG 2601/2603 VRB03KT
FM261600 16008KT P6SM FEW100
RMK NXT FCST BY 251500Z


Example: see airport list